createdAt,value
2023-03-12T00:00:12.728Z,0.00
2023-03-12T00:01:12.721Z,0.00
2023-03-12T00:02:12.733Z,0.00
2023-03-12T00:03:12.718Z,0.00
2023-03-12T00:04:12.687Z,0.00
2023-03-12T00:05:12.678Z,0.00
2023-03-12T00:06:12.680Z,0.00
2023-03-12T00:07:12.648Z,0.00
2023-03-12T00:08:12.662Z,0.00
2023-03-12T00:09:12.628Z,0.00
2023-03-12T00:10:13.277Z,0.00
2023-03-12T00:11:12.623Z,0.00
2023-03-12T00:12:12.605Z,0.00
2023-03-12T00:13:12.597Z,0.00
2023-03-12T00:14:12.575Z,0.00
2023-03-12T00:15:12.584Z,0.00
2023-03-12T00:16:12.613Z,0.00
2023-03-12T00:17:12.539Z,0.00
2023-03-12T00:18:12.521Z,0.00
2023-03-12T00:19:12.535Z,0.00
2023-03-12T00:20:12.515Z,0.00
2023-03-12T00:21:12.503Z,0.00
2023-03-12T00:22:12.518Z,0.00
2023-03-12T00:23:12.488Z,0.00
2023-03-12T00:24:12.466Z,0.00
2023-03-12T00:25:12.448Z,0.00
2023-03-12T00:26:12.437Z,0.00
2023-03-12T00:27:12.433Z,0.00
2023-03-12T00:28:12.414Z,0.00
2023-03-12T00:29:12.426Z,0.00
2023-03-12T00:30:12.393Z,0.00
2023-03-12T00:31:12.424Z,0.00
2023-03-12T00:32:12.365Z,0.00
2023-03-12T00:33:12.366Z,0.00
2023-03-12T00:34:12.353Z,0.00
2023-03-12T00:35:12.336Z,0.00
2023-03-12T00:36:12.335Z,0.00
2023-03-12T00:37:12.311Z,0.00
2023-03-12T00:38:12.305Z,0.00
2023-03-12T00:39:12.305Z,0.00
2023-03-12T00:40:12.288Z,0.00
2023-03-12T00:41:12.278Z,0.00
2023-03-12T00:42:12.257Z,0.00
2023-03-12T00:43:12.245Z,0.00
2023-03-12T00:44:12.235Z,0.00
2023-03-12T00:45:12.225Z,0.00
2023-03-12T00:46:12.279Z,0.00
2023-03-12T00:47:12.209Z,0.00
2023-03-12T00:48:12.210Z,0.00
2023-03-12T00:49:12.202Z,0.00
2023-03-12T00:50:12.177Z,0.00
2023-03-12T00:51:12.154Z,0.00
2023-03-12T00:52:12.144Z,0.00
2023-03-12T00:53:12.143Z,0.00
2023-03-12T00:54:12.128Z,0.00
2023-03-12T00:55:12.122Z,0.00
2023-03-12T00:56:12.103Z,0.00
2023-03-12T00:57:12.093Z,0.00
2023-03-12T00:58:12.093Z,0.00
2023-03-12T00:59:12.069Z,0.00
2023-03-12T01:00:12.135Z,0.00
2023-03-12T01:01:12.103Z,0.00
2023-03-12T01:02:12.039Z,0.00
2023-03-12T01:03:12.025Z,0.00
2023-03-12T01:04:12.074Z,0.00
2023-03-12T01:05:12.049Z,0.00
2023-03-12T01:06:11.997Z,0.00
2023-03-12T01:07:11.980Z,0.00
2023-03-12T01:08:11.974Z,0.00
2023-03-12T01:09:11.963Z,0.00
2023-03-12T01:10:11.955Z,0.00
2023-03-12T01:11:11.936Z,0.00
2023-03-12T01:12:11.929Z,0.00
2023-03-12T01:13:11.919Z,0.00
2023-03-12T01:14:11.933Z,0.00
2023-03-12T01:15:11.905Z,0.00
2023-03-12T01:16:11.894Z,0.00
2023-03-12T01:17:11.871Z,0.00
2023-03-12T01:18:11.864Z,0.00
2023-03-12T01:19:11.854Z,0.00
2023-03-12T01:20:11.866Z,0.00
2023-03-12T01:21:11.828Z,0.00
2023-03-12T01:22:11.823Z,0.00
2023-03-12T01:23:11.816Z,0.00
2023-03-12T01:24:11.803Z,0.00
2023-03-12T01:25:11.816Z,0.00
2023-03-12T01:26:11.785Z,0.00
2023-03-12T01:27:11.767Z,0.00
2023-03-12T01:28:11.765Z,0.00
2023-03-12T01:29:11.741Z,0.00
2023-03-12T01:30:11.733Z,0.00
2023-03-12T01:31:11.755Z,0.00
2023-03-12T01:32:11.711Z,0.00
2023-03-12T01:33:11.715Z,0.00
2023-03-12T01:34:11.706Z,0.00
2023-03-12T01:35:11.725Z,0.00
2023-03-12T01:36:11.732Z,0.00
2023-03-12T01:37:11.674Z,0.00
2023-03-12T01:38:11.647Z,0.00
2023-03-12T01:39:11.641Z,0.00
2023-03-12T01:40:11.631Z,0.00
2023-03-12T01:41:11.623Z,0.00
2023-03-12T01:42:11.621Z,0.00
2023-03-12T01:43:11.607Z,0.00
2023-03-12T01:44:11.588Z,0.00
2023-03-12T01:45:11.590Z,0.00
2023-03-12T01:46:11.612Z,0.00
2023-03-12T01:47:11.555Z,0.00
2023-03-12T01:48:11.558Z,0.00
2023-03-12T01:49:11.537Z,0.00
2023-03-12T01:50:11.546Z,0.00
2023-03-12T01:51:11.516Z,0.00
2023-03-12T01:52:11.501Z,0.00
2023-03-12T01:53:11.499Z,0.00
2023-03-12T01:54:11.486Z,0.00
2023-03-12T01:55:11.485Z,0.00
2023-03-12T01:56:11.460Z,0.00
2023-03-12T01:57:11.453Z,0.00
2023-03-12T01:58:11.464Z,0.00
2023-03-12T01:59:11.431Z,0.00
2023-03-12T02:00:11.421Z,0.00
2023-03-12T02:01:11.498Z,0.00
2023-03-12T02:02:11.413Z,0.00
2023-03-12T02:03:11.391Z,0.00
2023-03-12T02:04:11.418Z,0.00
2023-03-12T02:05:11.430Z,0.00
2023-03-12T02:06:11.356Z,0.00
2023-03-12T02:07:11.346Z,0.00
2023-03-12T02:08:11.337Z,0.00
2023-03-12T02:09:11.333Z,0.00
2023-03-12T02:10:11.321Z,0.00
2023-03-12T02:11:11.316Z,0.00
2023-03-12T02:12:11.294Z,0.00
2023-03-12T02:13:11.315Z,0.00
2023-03-12T02:14:11.301Z,0.00
2023-03-12T02:15:11.279Z,0.00
2023-03-12T02:16:11.326Z,0.00
2023-03-12T02:17:11.252Z,0.00
2023-03-12T02:18:11.232Z,0.00
2023-03-12T02:19:11.240Z,0.00
2023-03-12T02:20:11.211Z,0.00
2023-03-12T02:21:11.199Z,0.00
2023-03-12T02:22:11.195Z,0.00
2023-03-12T02:23:17.338Z,0.00
2023-03-12T02:24:11.167Z,0.00
2023-03-12T02:25:11.157Z,0.00
2023-03-12T02:26:11.147Z,0.00
2023-03-12T02:27:11.145Z,0.00
2023-03-12T02:28:11.144Z,0.00
2023-03-12T02:29:11.119Z,0.00
2023-03-12T02:30:11.102Z,0.00
2023-03-12T02:31:11.088Z,0.00
2023-03-12T02:32:11.098Z,0.00
2023-03-12T02:33:11.100Z,0.00
2023-03-12T02:34:11.100Z,0.00
2023-03-12T02:35:11.057Z,0.00
2023-03-12T02:36:11.089Z,0.00
2023-03-12T02:37:11.040Z,0.00
2023-03-12T02:38:11.038Z,0.00
2023-03-12T02:39:11.020Z,0.00
2023-03-12T02:40:11.016Z,0.00
2023-03-12T02:41:11.005Z,0.00
2023-03-12T02:42:10.978Z,0.00
2023-03-12T02:43:10.971Z,0.00
2023-03-12T02:44:10.978Z,0.00
2023-03-12T02:45:10.957Z,0.00
2023-03-12T02:46:10.971Z,0.00
2023-03-12T02:47:10.935Z,0.00
2023-03-12T02:48:10.924Z,0.00
2023-03-12T02:49:10.924Z,0.00
2023-03-12T02:50:10.899Z,0.00
2023-03-12T02:51:10.888Z,0.00
2023-03-12T02:52:10.913Z,0.00
2023-03-12T02:53:10.863Z,0.00
2023-03-12T02:54:10.873Z,0.00
2023-03-12T02:55:10.847Z,0.00
2023-03-12T02:56:10.851Z,0.00
2023-03-12T02:57:10.839Z,0.00
2023-03-12T02:58:10.816Z,0.00
2023-03-12T02:59:10.812Z,0.00
2023-03-12T03:00:10.788Z,0.00
2023-03-12T03:01:10.815Z,0.00
2023-03-12T03:02:10.773Z,0.00
2023-03-12T03:03:10.777Z,0.00
2023-03-12T03:04:10.865Z,0.00
2023-03-12T03:05:10.737Z,0.00
2023-03-12T03:06:10.735Z,0.00
2023-03-12T03:07:10.727Z,0.00
2023-03-12T03:08:10.720Z,0.00
2023-03-12T03:09:10.712Z,0.00
2023-03-12T03:10:10.794Z,0.00
2023-03-12T03:11:10.697Z,0.00
2023-03-12T03:12:10.686Z,0.00
2023-03-12T03:13:10.663Z,0.00
2023-03-12T03:14:10.657Z,0.00
2023-03-12T03:15:10.639Z,0.00
2023-03-12T03:16:10.742Z,0.00
2023-03-12T03:17:10.640Z,0.00
2023-03-12T03:18:10.606Z,0.00
2023-03-12T03:19:10.631Z,0.00
2023-03-12T03:20:10.588Z,0.00
2023-03-12T03:21:10.860Z,0.00
2023-03-12T03:22:10.590Z,0.00
2023-03-12T03:23:10.569Z,0.00
2023-03-12T03:24:10.550Z,0.00
2023-03-12T03:25:10.547Z,0.00
2023-03-12T03:26:10.533Z,0.00
2023-03-12T03:27:10.525Z,0.00
2023-03-12T03:28:10.521Z,0.00
2023-03-12T03:29:10.524Z,0.00
2023-03-12T03:30:10.482Z,0.00
2023-03-12T03:31:10.579Z,0.00
2023-03-12T03:32:10.480Z,0.00
2023-03-12T03:33:10.469Z,0.00
2023-03-12T03:34:10.453Z,0.00
2023-03-12T03:35:10.430Z,0.00
2023-03-12T03:36:10.421Z,0.00
2023-03-12T03:37:10.408Z,0.00
2023-03-12T03:38:10.396Z,0.00
2023-03-12T03:39:10.386Z,0.00
2023-03-12T03:40:10.398Z,0.00
2023-03-12T03:41:10.366Z,0.00
2023-03-12T03:42:10.354Z,0.00
2023-03-12T03:43:10.360Z,0.00
2023-03-12T03:44:10.358Z,0.00
2023-03-12T03:45:10.321Z,0.00
2023-03-12T03:46:10.371Z,0.00
2023-03-12T03:47:10.319Z,0.00
2023-03-12T03:48:10.298Z,0.00
2023-03-12T03:49:10.294Z,0.00
2023-03-12T03:50:10.274Z,0.00
2023-03-12T03:51:10.259Z,0.00
2023-03-12T03:52:10.259Z,0.00
2023-03-12T03:53:10.241Z,0.00
2023-03-12T03:54:10.246Z,0.00
2023-03-12T03:55:10.214Z,0.00
2023-03-12T03:56:10.217Z,0.00
2023-03-12T03:57:10.231Z,0.00
2023-03-12T03:58:10.192Z,0.00
2023-03-12T03:59:10.192Z,0.00
2023-03-12T04:00:10.167Z,0.00
2023-03-12T04:01:10.162Z,0.00
2023-03-12T04:02:10.157Z,0.00
2023-03-12T04:03:10.162Z,0.00
2023-03-12T04:04:10.130Z,0.00
2023-03-12T04:05:10.118Z,0.00
2023-03-12T04:06:10.126Z,0.00
2023-03-12T04:07:10.091Z,0.00
2023-03-12T04:08:10.095Z,0.00
2023-03-12T04:09:10.072Z,0.00
2023-03-12T04:10:10.080Z,0.00
2023-03-12T04:11:10.084Z,0.00
2023-03-12T04:12:10.064Z,0.00
2023-03-12T04:13:10.037Z,0.00
2023-03-12T04:14:10.037Z,0.00
2023-03-12T04:15:10.041Z,0.00
2023-03-12T04:16:10.047Z,0.00
2023-03-12T04:17:10.002Z,0.00
2023-03-12T04:18:10.023Z,0.00
2023-03-12T04:19:09.966Z,0.00
2023-03-12T04:20:09.964Z,0.00
2023-03-12T04:21:09.958Z,0.00
2023-03-12T04:22:09.974Z,0.00
2023-03-12T04:23:09.930Z,0.00
2023-03-12T04:24:09.919Z,0.00
2023-03-12T04:25:09.868Z,1.00
2023-03-12T04:26:09.898Z,0.00
2023-03-12T04:27:09.902Z,0.00
2023-03-12T04:28:09.882Z,0.00
2023-03-12T04:29:09.876Z,0.00
2023-03-12T04:30:09.870Z,0.00
2023-03-12T04:31:09.895Z,0.00
2023-03-12T04:32:09.859Z,0.00
2023-03-12T04:33:09.847Z,0.00
2023-03-12T04:34:10.000Z,0.00
2023-03-12T04:35:09.818Z,0.00
2023-03-12T04:36:09.844Z,1.00
2023-03-12T04:37:09.798Z,0.00
2023-03-12T04:38:09.793Z,0.00
2023-03-12T04:39:09.776Z,0.00
2023-03-12T04:40:09.794Z,0.00
2023-03-12T04:41:09.765Z,0.00
2023-03-12T04:42:09.734Z,0.00
2023-03-12T04:43:09.716Z,0.00
2023-03-12T04:44:12.583Z,0.00
2023-03-12T04:45:09.715Z,0.00
2023-03-12T04:46:09.777Z,0.00
2023-03-12T04:47:09.684Z,0.00
2023-03-12T04:48:09.670Z,0.00
2023-03-12T04:49:09.658Z,0.00
2023-03-12T04:50:09.662Z,0.00
2023-03-12T04:51:09.655Z,0.00
2023-03-12T04:52:09.644Z,0.00
2023-03-12T04:53:09.711Z,0.00
2023-03-12T04:54:09.627Z,0.00
2023-03-12T04:55:09.603Z,0.00
2023-03-12T04:56:09.600Z,0.00
2023-03-12T04:57:09.586Z,0.00
2023-03-12T04:58:09.571Z,0.00
2023-03-12T04:59:09.577Z,0.00
2023-03-12T05:00:09.547Z,0.00
2023-03-12T05:01:09.543Z,0.00
2023-03-12T05:02:09.529Z,0.00
2023-03-12T05:03:09.534Z,1.00
2023-03-12T05:04:09.616Z,0.00
2023-03-12T05:05:09.504Z,0.00
2023-03-12T05:06:09.519Z,0.00
2023-03-12T05:07:09.482Z,0.00
2023-03-12T05:08:09.466Z,0.00
2023-03-12T05:09:09.456Z,0.00
2023-03-12T05:10:09.419Z,1.00
2023-03-12T05:11:09.458Z,0.00
2023-03-12T05:12:09.394Z,1.00
2023-03-12T05:13:09.429Z,0.00
2023-03-12T05:14:09.409Z,0.00
2023-03-12T05:15:09.417Z,0.00
2023-03-12T05:16:09.362Z,1.00
2023-03-12T05:17:09.415Z,0.00
2023-03-12T05:18:09.366Z,0.00
2023-03-12T05:19:09.360Z,0.00
2023-03-12T05:20:09.349Z,0.00
2023-03-12T05:21:09.335Z,0.00
2023-03-12T05:22:09.322Z,0.00
2023-03-12T05:23:09.329Z,0.00
2023-03-12T05:24:09.302Z,0.00
2023-03-12T05:25:09.254Z,1.00
2023-03-12T05:26:09.222Z,1.00
2023-03-12T05:27:09.215Z,1.00
2023-03-12T05:28:09.229Z,1.00
2023-03-12T05:29:09.194Z,1.00
2023-03-12T05:30:09.179Z,1.00
2023-03-12T05:31:09.275Z,1.00
2023-03-12T05:32:09.174Z,1.00
2023-03-12T05:33:09.156Z,1.00
2023-03-12T05:34:09.141Z,1.00
2023-03-12T05:35:09.804Z,1.00
2023-03-12T05:36:09.306Z,2.00
2023-03-12T05:37:09.108Z,2.00
2023-03-12T05:38:09.094Z,1.00
2023-03-12T05:39:09.108Z,1.00
2023-03-12T05:40:09.082Z,2.00
2023-03-12T05:41:09.095Z,2.00
2023-03-12T05:42:09.057Z,2.00
2023-03-12T05:43:09.055Z,1.00
2023-03-12T05:44:09.027Z,1.00
2023-03-12T05:45:09.039Z,2.00
2023-03-12T05:46:09.116Z,2.00
2023-03-12T05:47:09.008Z,7.00
2023-03-12T05:48:08.979Z,5.00
2023-03-12T05:49:08.989Z,4.00
2023-03-12T05:50:08.963Z,4.00
2023-03-12T05:51:08.981Z,8.00
2023-03-12T05:52:09.891Z,8.00
2023-03-12T05:53:08.931Z,9.00
2023-03-12T05:54:08.924Z,11.00
2023-03-12T05:55:08.913Z,15.00
2023-03-12T05:56:08.889Z,15.00
2023-03-12T05:57:08.890Z,15.00
2023-03-12T05:58:08.875Z,17.00
2023-03-12T05:59:08.869Z,19.00
2023-03-12T06:00:08.857Z,23.00
2023-03-12T06:01:08.834Z,23.00
2023-03-12T06:02:08.951Z,26.00
2023-03-12T06:03:08.858Z,29.00
2023-03-12T06:04:08.799Z,29.00
2023-03-12T06:05:08.796Z,30.00
2023-03-12T06:06:08.782Z,31.00
2023-03-12T06:07:08.890Z,35.00
2023-03-12T06:08:08.775Z,41.00
2023-03-12T06:09:08.751Z,45.00
2023-03-12T06:10:08.752Z,46.00
2023-03-12T06:11:08.736Z,49.00
2023-03-12T06:12:08.742Z,53.00
2023-03-12T06:13:08.709Z,52.00
2023-03-12T06:14:08.687Z,58.00
2023-03-12T06:15:08.690Z,55.00
2023-03-12T06:16:08.659Z,57.00
2023-03-12T06:17:08.658Z,60.00
2023-03-12T06:18:08.647Z,64.00
2023-03-12T06:19:08.637Z,63.00
2023-03-12T06:20:08.632Z,70.00
2023-03-12T06:21:08.619Z,82.00
2023-03-12T06:22:08.598Z,85.00
2023-03-12T06:23:08.592Z,89.00
2023-03-12T06:24:08.586Z,93.00
2023-03-12T06:25:08.600Z,97.00
2023-03-12T06:26:08.566Z,108.00
2023-03-12T06:27:08.555Z,108.00
2023-03-12T06:28:08.535Z,111.00
2023-03-12T06:29:08.544Z,117.00
2023-03-12T06:30:08.537Z,130.00
2023-03-12T06:31:08.557Z,137.00
2023-03-12T06:32:08.501Z,142.00
2023-03-12T06:33:08.484Z,153.00
2023-03-12T06:34:08.472Z,182.00
2023-03-12T06:35:08.471Z,188.00
2023-03-12T06:36:08.464Z,179.00
2023-03-12T06:37:08.441Z,176.00
2023-03-12T06:38:08.421Z,177.00
2023-03-12T06:39:08.428Z,165.00
2023-03-12T06:40:08.395Z,170.00
2023-03-12T06:41:08.416Z,165.00
2023-03-12T06:42:08.910Z,89.00
2023-03-12T06:43:08.374Z,207.00
2023-03-12T06:44:08.347Z,141.00
2023-03-12T06:45:08.348Z,117.00
2023-03-12T06:46:08.391Z,102.00
2023-03-12T06:47:08.333Z,88.00
2023-03-12T06:48:08.307Z,87.00
2023-03-12T06:49:08.308Z,85.00
2023-03-12T06:50:08.284Z,96.00
2023-03-12T06:51:08.304Z,106.00
2023-03-12T06:52:08.271Z,114.00
2023-03-12T06:53:08.255Z,123.00
2023-03-12T06:54:08.249Z,153.00
2023-03-12T06:55:08.252Z,148.00
2023-03-12T06:56:08.223Z,139.00
2023-03-12T06:57:08.240Z,159.00
2023-03-12T06:58:08.198Z,164.00
2023-03-12T06:59:08.212Z,164.00
2023-03-12T07:00:08.246Z,154.00
2023-03-12T07:01:08.194Z,131.00
2023-03-12T07:02:08.220Z,116.00
2023-03-12T07:03:08.169Z,114.00
2023-03-12T07:04:08.145Z,122.00
2023-03-12T07:05:08.219Z,138.00
2023-03-12T07:06:08.128Z,123.00
2023-03-12T07:07:08.184Z,109.00
2023-03-12T07:08:08.106Z,110.00
2023-03-12T07:09:08.124Z,103.00
2023-03-12T07:10:08.078Z,89.00
2023-03-12T07:11:08.078Z,119.00
2023-03-12T07:12:08.054Z,107.00
2023-03-12T07:13:08.169Z,107.00
2023-03-12T07:14:08.049Z,103.00
2023-03-12T07:15:08.027Z,124.00
2023-03-12T07:16:08.061Z,123.00
2023-03-12T07:17:08.022Z,141.00
2023-03-12T07:18:08.013Z,149.00
2023-03-12T07:19:07.992Z,175.00
2023-03-12T07:20:07.990Z,214.00
2023-03-12T07:21:08.000Z,200.00
2023-03-12T07:22:07.976Z,178.00
2023-03-12T07:23:07.969Z,181.00
2023-03-12T07:24:07.937Z,153.00
2023-03-12T07:25:07.937Z,152.00
2023-03-12T07:26:07.945Z,147.00
2023-03-12T07:27:07.920Z,134.00
2023-03-12T07:28:07.890Z,118.00
2023-03-12T07:29:07.888Z,111.00
2023-03-12T07:30:07.876Z,123.00
2023-03-12T07:31:07.884Z,139.00
2023-03-12T07:32:07.868Z,151.00
2023-03-12T07:33:08.004Z,157.00
2023-03-12T07:34:08.010Z,163.00
2023-03-12T07:35:07.822Z,167.00
2023-03-12T07:36:07.913Z,169.00
2023-03-12T07:37:07.813Z,175.00
2023-03-12T07:38:07.863Z,176.00
2023-03-12T07:39:07.773Z,151.00
2023-03-12T07:40:07.823Z,162.00
2023-03-12T07:41:07.842Z,150.00
2023-03-12T07:42:07.813Z,146.00
2023-03-12T07:43:07.728Z,149.00
2023-03-12T07:44:07.766Z,167.00
2023-03-12T07:45:07.721Z,189.00
2023-03-12T07:46:07.701Z,181.00
2023-03-12T07:47:22.682Z,202.00
2023-03-12T07:48:07.747Z,207.00
2023-03-12T07:49:07.670Z,197.00
2023-03-12T07:50:07.754Z,213.00
2023-03-12T07:51:07.673Z,194.00
2023-03-12T07:52:07.685Z,175.00
2023-03-12T07:53:07.628Z,198.00
2023-03-12T07:54:07.618Z,192.00
2023-03-12T07:55:07.658Z,235.00
2023-03-12T07:56:07.758Z,283.00
2023-03-12T07:57:07.758Z,270.00
2023-03-12T07:58:07.700Z,255.00
2023-03-12T07:59:07.703Z,284.00
2023-03-12T08:00:07.592Z,283.00
2023-03-12T08:01:07.565Z,254.00
2023-03-12T08:02:08.535Z,243.00
2023-03-12T08:03:07.854Z,223.00
2023-03-12T08:04:07.616Z,208.00
2023-03-12T08:05:07.556Z,185.00
2023-03-12T08:06:07.561Z,175.00
2023-03-12T08:07:09.300Z,164.00
2023-03-12T08:08:07.458Z,143.00
2023-03-12T08:09:07.458Z,168.00
2023-03-12T08:10:07.555Z,178.00
2023-03-12T08:11:07.440Z,183.00
2023-03-12T08:12:07.487Z,219.00
2023-03-12T08:13:07.429Z,243.00
2023-03-12T08:14:07.460Z,219.00
2023-03-12T08:15:07.401Z,227.00
2023-03-12T08:16:09.414Z,231.00
2023-03-12T08:17:07.389Z,409.00
2023-03-12T08:18:07.365Z,365.00
2023-03-12T08:19:07.350Z,447.00
2023-03-12T08:20:07.339Z,435.00
2023-03-12T08:21:07.322Z,549.00
2023-03-12T08:22:07.320Z,463.00
2023-03-12T08:23:07.311Z,383.00
2023-03-12T08:24:07.293Z,336.00
2023-03-12T08:25:07.306Z,321.00
2023-03-12T08:26:07.267Z,304.00
2023-03-12T08:27:07.252Z,279.00
2023-03-12T08:28:07.296Z,284.00
2023-03-12T08:29:07.242Z,264.00
2023-03-12T08:30:07.222Z,266.00
2023-03-12T08:31:07.250Z,288.00
2023-03-12T08:32:07.255Z,266.00
2023-03-12T08:33:07.225Z,279.00
2023-03-12T08:34:07.198Z,280.00
2023-03-12T08:35:07.182Z,304.00
2023-03-12T08:36:07.163Z,310.00
2023-03-12T08:37:07.151Z,265.00
2023-03-12T08:38:07.144Z,319.00
2023-03-12T08:39:07.128Z,369.00
2023-03-12T08:40:07.130Z,341.00
2023-03-12T08:41:07.126Z,359.00
2023-03-12T08:42:07.124Z,346.00
2023-03-12T08:43:07.088Z,407.00
2023-03-12T08:44:07.070Z,520.00
2023-03-12T08:45:07.062Z,464.00
2023-03-12T08:46:07.051Z,400.00
2023-03-12T08:47:07.133Z,354.00
2023-03-12T08:48:07.073Z,323.00
2023-03-12T08:49:07.033Z,323.00
2023-03-12T08:50:07.018Z,308.00
2023-03-12T08:51:06.999Z,288.00
2023-03-12T08:52:06.989Z,265.00
2023-03-12T08:53:06.996Z,287.00
2023-03-12T08:54:06.973Z,273.00
2023-03-12T08:55:06.981Z,330.00
2023-03-12T08:56:06.943Z,413.00
2023-03-12T08:57:06.940Z,443.00
2023-03-12T08:58:06.941Z,454.00
2023-03-12T08:59:06.932Z,483.00
2023-03-12T09:00:06.899Z,479.00
2023-03-12T09:01:06.898Z,403.00
2023-03-12T09:02:06.880Z,443.00
2023-03-12T09:03:07.012Z,474.00
2023-03-12T09:04:06.908Z,451.00
2023-03-12T09:05:06.871Z,736.00
2023-03-12T09:06:06.838Z,720.00
2023-03-12T09:07:06.839Z,660.00
2023-03-12T09:08:06.839Z,568.00
2023-03-12T09:09:06.836Z,466.00
2023-03-12T09:10:06.821Z,459.00
2023-03-12T09:11:06.806Z,404.00
2023-03-12T09:12:06.777Z,432.00
2023-03-12T09:13:06.771Z,509.00
2023-03-12T09:15:05.756Z,594.00
2023-03-12T09:16:06.742Z,606.00
2023-03-12T09:17:06.728Z,555.00
2023-03-12T09:18:06.719Z,468.00
2023-03-12T09:19:06.706Z,476.00
2023-03-12T09:20:06.716Z,463.00
2023-03-12T09:21:06.682Z,488.00
2023-03-12T09:22:06.699Z,393.00
2023-03-12T09:23:07.764Z,479.00
2023-03-12T09:24:06.683Z,435.00
2023-03-12T09:25:06.659Z,375.00
2023-03-12T09:26:06.650Z,410.00
2023-03-12T09:27:06.608Z,335.00
2023-03-12T09:28:06.602Z,373.00
2023-03-12T09:29:06.588Z,338.00
2023-03-12T09:30:06.617Z,330.00
2023-03-12T09:31:06.611Z,312.00
2023-03-12T09:32:06.570Z,365.00
2023-03-12T09:33:06.566Z,416.00
2023-03-12T09:34:06.555Z,450.00
2023-03-12T09:35:06.523Z,405.00
2023-03-12T09:36:06.619Z,438.00
2023-03-12T09:37:06.509Z,438.00
2023-03-12T09:38:06.495Z,502.00
2023-03-12T09:39:06.488Z,513.00
2023-03-12T09:40:06.474Z,483.00
2023-03-12T09:41:06.479Z,509.00
2023-03-12T09:42:06.532Z,496.00
2023-03-12T09:43:06.443Z,417.00
2023-03-12T09:44:06.447Z,384.00
2023-03-12T09:45:06.422Z,355.00
2023-03-12T09:46:06.478Z,360.00
2023-03-12T09:47:06.391Z,350.00
2023-03-12T09:48:06.401Z,352.00
2023-03-12T09:49:06.374Z,351.00
2023-03-12T09:50:06.378Z,379.00
2023-03-12T09:51:06.357Z,369.00
2023-03-12T09:52:06.349Z,303.00
2023-03-12T09:53:06.351Z,326.00
2023-03-12T09:54:06.326Z,345.00
2023-03-12T09:55:06.316Z,325.00
2023-03-12T09:56:06.306Z,321.00
2023-03-12T09:57:06.323Z,311.00
2023-03-12T09:58:06.299Z,286.00
2023-03-12T09:59:06.269Z,289.00
2023-03-12T10:00:06.260Z,342.00
2023-03-12T10:01:06.255Z,350.00
2023-03-12T10:02:06.242Z,339.00
2023-03-12T10:03:06.311Z,313.00
2023-03-12T10:04:06.240Z,326.00
2023-03-12T10:05:06.265Z,367.00
2023-03-12T10:06:06.249Z,310.00
2023-03-12T10:07:06.183Z,381.00
2023-03-12T10:08:23.098Z,346.00
2023-03-12T10:09:06.168Z,431.00
2023-03-12T10:10:06.163Z,395.00
2023-03-12T10:11:06.144Z,377.00
2023-03-12T10:12:06.143Z,313.00
2023-03-12T10:13:06.127Z,353.00
2023-03-12T10:14:06.187Z,308.00
2023-03-12T10:15:06.102Z,285.00
2023-03-12T10:16:06.158Z,241.00
2023-03-12T10:17:06.074Z,223.00
2023-03-12T10:18:06.320Z,296.00
2023-03-12T10:19:06.115Z,341.00
2023-03-12T10:20:06.046Z,345.00
2023-03-12T10:21:06.048Z,378.00
2023-03-12T10:22:06.029Z,399.00
2023-03-12T10:23:06.018Z,350.00
2023-03-12T10:25:16.268Z,381.00
2023-03-12T10:26:17.236Z,322.00
2023-03-12T10:27:17.233Z,473.00
2023-03-12T10:28:17.218Z,413.00
2023-03-12T10:29:17.209Z,492.00
2023-03-12T10:30:17.203Z,633.00
2023-03-12T10:31:17.192Z,571.00
2023-03-12T10:32:17.213Z,547.00
2023-03-12T10:33:17.163Z,530.00
2023-03-12T10:34:17.152Z,695.00
2023-03-12T10:35:17.853Z,624.00
2023-03-12T10:36:17.136Z,497.00
2023-03-12T10:37:17.143Z,489.00
2023-03-12T10:38:17.119Z,506.00
2023-03-12T10:39:17.099Z,439.00
2023-03-12T10:40:17.096Z,397.00
2023-03-12T10:41:17.077Z,400.00
2023-03-12T10:42:17.078Z,409.00
2023-03-12T10:43:17.083Z,401.00
2023-03-12T10:44:17.061Z,361.00
2023-03-12T10:45:17.034Z,363.00
2023-03-12T10:46:17.058Z,297.00
2023-03-12T10:47:17.025Z,298.00
2023-03-12T10:48:17.007Z,405.00
2023-03-12T10:49:17.004Z,385.00
2023-03-12T10:50:17.006Z,303.00
2023-03-12T10:51:16.978Z,444.00
2023-03-12T10:52:16.967Z,426.00
2023-03-12T10:53:16.965Z,400.00
2023-03-12T10:54:16.938Z,363.00
2023-03-12T10:55:16.942Z,326.00
2023-03-12T10:56:16.932Z,310.00
2023-03-12T10:57:16.922Z,275.00
2023-03-12T10:58:16.898Z,302.00
2023-03-12T10:59:18.013Z,362.00
2023-03-12T11:00:16.892Z,451.00
2023-03-12T11:01:16.962Z,511.00
2023-03-12T11:02:16.860Z,467.00
2023-03-12T11:03:16.853Z,447.00
2023-03-12T11:04:16.844Z,393.00
2023-03-12T11:05:16.820Z,377.00
2023-03-12T11:06:16.849Z,411.00
2023-03-12T11:07:16.820Z,375.00
2023-03-12T11:08:16.797Z,290.00
2023-03-12T11:09:17.705Z,414.00
2023-03-12T11:10:16.775Z,413.00
2023-03-12T11:11:16.769Z,365.00
2023-03-12T11:12:16.755Z,328.00
2023-03-12T11:13:16.736Z,331.00
2023-03-12T11:14:16.759Z,347.00
2023-03-12T11:15:16.719Z,375.00
2023-03-12T11:16:16.800Z,326.00
2023-03-12T11:17:16.692Z,331.00
2023-03-12T11:18:16.705Z,393.00
2023-03-12T11:19:17.015Z,350.00
2023-03-12T11:20:16.670Z,361.00
2023-03-12T11:21:16.657Z,448.00
2023-03-12T11:22:16.643Z,427.00
2023-03-12T11:23:16.625Z,424.00
2023-03-12T11:24:16.638Z,500.00
2023-03-12T11:25:16.620Z,466.00
2023-03-12T11:26:16.603Z,446.00
2023-03-12T11:27:16.592Z,472.00
2023-03-12T11:28:16.634Z,527.00
2023-03-12T11:29:16.566Z,433.00
2023-03-12T11:30:16.627Z,513.00
2023-03-12T11:31:16.670Z,607.00
2023-03-12T11:32:16.594Z,590.00
2023-03-12T11:33:16.520Z,532.00
2023-03-12T11:34:16.517Z,584.00
2023-03-12T11:35:16.530Z,485.00
2023-03-12T11:36:16.504Z,419.00
2023-03-12T11:37:16.486Z,371.00
2023-03-12T11:38:16.477Z,376.00
2023-03-12T11:39:16.474Z,401.00
2023-03-12T11:40:16.473Z,344.00
2023-03-12T11:41:16.442Z,385.00
2023-03-12T11:42:16.443Z,373.00
2023-03-12T11:43:16.450Z,585.00
2023-03-12T11:44:16.424Z,681.00
2023-03-12T11:45:16.408Z,624.00
2023-03-12T11:46:16.420Z,586.00
2023-03-12T11:47:16.434Z,742.00
2023-03-12T11:48:16.409Z,639.00
2023-03-12T11:49:16.363Z,475.00
2023-03-12T11:50:16.358Z,513.00
2023-03-12T11:51:16.344Z,355.00
2023-03-12T11:52:16.338Z,545.00
2023-03-12T11:53:16.318Z,455.00
2023-03-12T11:54:16.336Z,484.00
2023-03-12T11:55:16.713Z,397.00
2023-03-12T11:56:16.292Z,481.00
2023-03-12T11:57:16.261Z,438.00
2023-03-12T11:58:16.259Z,384.00
2023-03-12T11:59:16.277Z,297.00
2023-03-12T12:00:16.235Z,749.00
2023-03-12T12:01:16.267Z,599.00
2023-03-12T12:02:16.250Z,696.00
2023-03-12T12:03:16.342Z,559.00
2023-03-12T12:04:16.197Z,628.00
2023-03-12T12:05:16.199Z,609.00
2023-03-12T12:06:16.201Z,697.00
2023-03-12T12:07:16.180Z,782.00
2023-03-12T12:08:16.181Z,673.00
2023-03-12T12:09:16.135Z,535.00
2023-03-12T12:10:16.157Z,641.00
2023-03-12T12:11:16.118Z,597.00
2023-03-12T12:12:16.127Z,599.00
2023-03-12T12:13:16.095Z,494.00
2023-03-12T12:14:16.104Z,513.00
2023-03-12T12:15:16.071Z,672.00
2023-03-12T12:16:16.125Z,582.00
2023-03-12T12:17:16.071Z,726.00
2023-03-12T12:18:16.055Z,662.00
2023-03-12T12:19:16.036Z,586.00
2023-03-12T12:20:16.034Z,515.00
2023-03-12T12:21:16.012Z,489.00
2023-03-12T12:22:16.012Z,480.00
2023-03-12T12:23:15.990Z,539.00
2023-03-12T12:24:18.187Z,343.00
2023-03-12T12:25:15.983Z,599.00
2023-03-12T12:26:15.964Z,611.00
2023-03-12T12:27:15.952Z,553.00
2023-03-12T12:28:15.942Z,671.00
2023-03-12T12:29:15.935Z,686.00
2023-03-12T12:30:15.928Z,575.00
2023-03-12T12:31:15.904Z,485.00
2023-03-12T12:32:15.961Z,481.00
2023-03-12T12:33:15.885Z,455.00
2023-03-12T12:34:15.878Z,353.00
2023-03-12T12:35:15.865Z,521.00
2023-03-12T12:36:15.898Z,491.00
2023-03-12T12:37:15.842Z,678.00
2023-03-12T12:38:15.854Z,734.00
2023-03-12T12:39:15.868Z,603.00
2023-03-12T12:40:15.815Z,688.00
2023-03-12T12:41:15.804Z,489.00
2023-03-12T12:42:15.803Z,673.00
2023-03-12T12:43:15.787Z,570.00
2023-03-12T12:44:15.780Z,504.00
2023-03-12T12:45:15.776Z,808.00
2023-03-12T12:46:15.785Z,625.00
2023-03-12T12:47:15.749Z,937.00
2023-03-12T12:48:15.739Z,740.00
2023-03-12T12:49:15.726Z,493.00
2023-03-12T12:50:15.705Z,626.00
2023-03-12T12:51:15.689Z,518.00
2023-03-12T12:52:15.701Z,482.00
2023-03-12T12:53:15.677Z,454.00